Time;durP1;ratioP1;P1;durP2;ratioP2;P2;SDS_P1;SDS_P2;PMS_P1;PMS_P2;Temp;Humidity;BMP_temperature;BMP_pressure;BME280_temperature;BME280_humidity;BME280_pressure;Samples;Min_cycle;Max_cycle;Signal;HPM_P1;HPM_P2
2023/01/18 00:00:16;;;;;;;9.20;5.20;;;;;;;6.30;100.00;96463.20;266987;1274;24224;-81
2023/01/18 00:06:40;;;;;;;8.50;4.50;;;;;;;5.82;100.00;96465.60;266663;1265;206572;-81
2023/01/18 00:12:44;;;;;;;6.20;3.50;;;;;;;5.50;100.00;96462.36;266250;1274;22806;-81
2023/01/18 00:18:54;;;;;;;6.80;3.60;;;;;;;5.61;100.00;96470.08;267167;1280;22602;-82
2023/01/18 00:24:56;;;;;;;4.90;2.80;;;;;;;5.53;100.00;96465.90;267591;1273;25975;-81
2023/01/18 00:31:09;;;;;;;7.00;3.40;;;;;;;5.57;100.00;96463.96;267409;1274;23372;-81
2023/01/18 00:37:12;;;;;;;6.60;3.40;;;;;;;5.37;100.00;96457.84;267422;1279;23923;-81
2023/01/18 00:49:37;;;;;;;5.70;3.00;;;;;;;4.95;100.00;96463.67;267453;1279;22550;-84
2023/01/18 00:55:40;;;;;;;6.70;3.20;;;;;;;4.91;100.00;96469.84;267531;1267;24246;-83
2023/01/18 01:01:48;;;;;;;5.50;3.00;;;;;;;4.99;100.00;96470.02;267427;1277;22538;-84
2023/01/18 01:07:54;;;;;;;5.30;2.70;;;;;;;4.77;100.00;96444.30;267443;1279;26629;-83
2023/01/18 01:26:48;;;;;;;5.50;3.10;;;;;;;4.50;100.00;96439.88;267763;1274;22543;-85
2023/01/18 01:32:55;;;;;;;4.40;2.60;;;;;;;4.20;100.00;96409.71;267267;1279;22633;-83
2023/01/18 01:39:09;;;;;;;4.50;2.80;;;;;;;4.21;100.00;96390.36;267114;1281;22536;-83
2023/01/18 01:45:12;;;;;;;4.50;2.50;;;;;;;4.38;100.00;96384.08;266858;1276;24422;-81
2023/01/18 01:51:26;;;;;;;3.20;2.20;;;;;;;4.44;100.00;96401.83;265881;1277;22545;-81
2023/01/18 01:57:52;;;;;;;4.90;2.40;;;;;;;4.66;100.00;96407.51;265944;1280;22640;-81
2023/01/18 02:04:00;;;;;;;4.20;2.40;;;;;;;4.53;100.00;96394.21;266637;1277;23003;-83
2023/01/18 02:10:05;;;;;;;5.50;2.90;;;;;;;4.66;100.00;96376.42;267252;1273;22588;-82
2023/01/18 02:16:42;;;;;;;3.90;2.40;;;;;;;4.52;100.00;96344.72;267284;1273;23308;-81
2023/01/18 02:23:23;;;;;;;5.20;2.80;;;;;;;4.47;100.00;96307.56;267543;1274;22736;-81
2023/01/18 02:29:48;;;;;;;7.90;4.30;;;;;;;4.79;100.00;96308.96;267315;1273;24155;-81
2023/01/18 02:35:54;;;;;;;9.30;5.80;;;;;;;4.86;100.00;96309.37;267597;1274;22629;-81
2023/01/18 02:48:44;;;;;;;5.70;3.60;;;;;;;4.64;100.00;96303.11;266374;1286;22766;-82
2023/01/18 02:54:47;;;;;;;5.60;3.40;;;;;;;4.81;100.00;96306.27;267494;1279;23216;-82
2023/01/18 03:01:03;;;;;;;5.50;3.40;;;;;;;4.98;100.00;96317.55;267563;1275;22740;-84
2023/01/18 03:07:35;;;;;;;6.50;3.70;;;;;;;5.24;100.00;96347.40;267418;1273;22643;-83
2023/01/18 03:14:01;;;;;;;7.30;4.20;;;;;;;5.58;100.00;96363.35;267765;1272;22724;-84
2023/01/18 03:20:13;;;;;;;7.10;3.90;;;;;;;5.98;100.00;96359.32;267468;1273;22570;-83
2023/01/18 03:26:23;;;;;;;6.20;3.20;;;;;;;6.03;100.00;96352.23;267395;1273;22625;-84
2023/01/18 03:39:00;;;;;;;5.90;3.50;;;;;;;6.22;100.00;96328.52;267557;1279;22751;-83
2023/01/18 03:45:09;;;;;;;5.50;3.60;;;;;;;5.96;100.00;96314.03;267607;1279;22729;-83
2023/01/18 03:51:46;;;;;;;6.10;3.90;;;;;;;6.18;100.00;96329.02;267500;1274;22559;-84
2023/01/18 03:57:53;;;;;;;7.10;3.90;;;;;;;6.18;100.00;96312.21;267139;1279;22579;-81
2023/01/18 04:03:57;;;;;;;5.70;3.60;;;;;;;6.22;100.00;96284.73;267526;1279;24765;-82
2023/01/18 04:10:10;;;;;;;5.90;3.80;;;;;;;5.85;100.00;96278.57;267366;1279;23134;-82
2023/01/18 04:16:13;;;;;;;6.80;4.00;;;;;;;5.48;100.00;96280.61;267286;1279;22633;-82
2023/01/18 04:22:16;;;;;;;6.30;3.90;;;;;;;5.47;100.00;96265.58;267420;1276;22566;-82
2023/01/18 04:28:24;;;;;;;8.20;4.60;;;;;;;5.49;100.00;96264.94;267305;1274;22959;-82
2023/01/18 04:34:27;;;;;;;9.10;5.00;;;;;;;5.55;100.00;96259.18;267744;1273;23239;-82
2023/01/18 04:40:31;;;;;;;11.10;6.20;;;;;;;5.36;100.00;96253.68;267500;1279;26589;-81
2023/01/18 04:46:36;;;;;;;7.30;5.10;;;;;;;5.40;100.00;96265.77;267403;1279;22538;-81
2023/01/18 04:52:42;;;;;;;9.40;5.80;;;;;;;5.61;100.00;96271.80;267384;1279;23438;-82
2023/01/18 04:58:45;;;;;;;11.30;5.60;;;;;;;5.91;100.00;96275.15;267480;1279;23853;-83
2023/01/18 05:04:51;;;;;;;11.70;6.90;;;;;;;5.86;100.00;96264.96;267524;1279;23402;-84
2023/01/18 05:11:04;;;;;;;10.70;6.70;;;;;;;5.84;100.00;96273.61;267243;1279;22642;-83
2023/01/18 05:17:07;;;;;;;14.00;7.50;;;;;;;6.36;100.00;96283.78;267252;1273;22537;-83
2023/01/18 05:23:18;;;;;;;12.70;6.80;;;;;;;6.64;100.00;96299.96;267222;1274;22645;-83
2023/01/18 05:29:21;;;;;;;10.30;6.30;;;;;;;6.50;100.00;96283.63;267182;1257;22547;-84
2023/01/18 05:35:26;;;;;;;12.00;6.80;;;;;;;6.27;100.00;96273.94;267509;1279;22598;-83
2023/01/18 05:41:32;;;;;;;11.30;6.30;;;;;;;6.10;100.00;96301.23;267340;1276;24141;-82
2023/01/18 05:47:35;;;;;;;10.50;5.80;;;;;;;6.32;100.00;96298.58;266545;1273;24388;-81
2023/01/18 05:53:39;;;;;;;9.10;4.90;;;;;;;6.04;100.00;96281.85;266064;1273;22618;-82
2023/01/18 05:59:42;;;;;;;12.20;6.30;;;;;;;5.83;100.00;96272.39;266119;1277;22684;-83
2023/01/18 06:05:46;;;;;;;13.10;6.80;;;;;;;5.86;100.00;96271.52;266165;1279;22575;-82
2023/01/18 06:11:51;;;;;;;14.90;7.50;;;;;;;6.21;100.00;96275.65;266108;1258;22536;-82
2023/01/18 06:17:54;;;;;;;11.20;6.80;;;;;;;6.34;100.00;96278.61;266116;1274;25492;-82
2023/01/18 06:23:57;;;;;;;14.60;7.80;;;;;;;6.11;100.00;96281.60;266203;1279;23396;-81
2023/01/18 06:30:06;;;;;;;13.00;7.30;;;;;;;6.13;100.00;96275.19;266098;1273;24023;-82
2023/01/18 06:36:09;;;;;;;15.00;7.90;;;;;;;6.05;100.00;96292.63;266247;1274;25602;-82
2023/01/18 06:42:12;;;;;;;13.30;7.30;;;;;;;6.28;100.00;96300.19;266754;1276;23170;-82
2023/01/18 06:48:17;;;;;;;17.60;9.30;;;;;;;6.41;100.00;96301.21;266185;1273;25401;-81
2023/01/18 06:54:20;;;;;;;13.50;7.80;;;;;;;6.39;100.00;96292.53;266226;1273;22539;-81
2023/01/18 07:00:23;;;;;;;16.20;8.70;;;;;;;6.26;100.00;96288.71;266137;1273;25531;-80
2023/01/18 07:06:26;;;;;;;19.20;9.30;;;;;;;6.39;100.00;96319.23;266271;1274;23120;-81
2023/01/18 07:12:29;;;;;;;17.30;8.40;;;;;;;6.80;100.00;96338.95;266125;1276;23712;-81
2023/01/18 07:18:38;;;;;;;16.80;8.40;;;;;;;6.65;100.00;96344.66;266795;1274;23377;-86
2023/01/18 07:24:42;;;;;;;22.60;10.10;;;;;;;6.69;100.00;96344.86;267645;1279;22810;-86
2023/01/18 07:30:50;;;;;;;21.30;9.50;;;;;;;6.95;100.00;96335.20;267616;1279;22538;-87
2023/01/18 07:37:06;;;;;;;21.30;9.30;;;;;;;7.17;100.00;96329.86;267787;1279;25502;-86
2023/01/18 07:43:09;;;;;;;20.00;9.10;;;;;;;7.10;100.00;96336.42;267799;1279;22526;-86
2023/01/18 07:49:15;;;;;;;21.60;9.50;;;;;;;7.15;100.00;96343.59;267515;1273;23282;-86
2023/01/18 07:55:19;;;;;;;18.50;9.00;;;;;;;7.03;100.00;96341.52;267058;1279;22587;-82
2023/01/18 08:01:23;;;;;;;18.20;8.40;;;;;;;6.97;100.00;96341.60;266183;1279;22552;-86
2023/01/18 08:07:27;;;;;;;17.20;8.40;;;;;;;6.98;100.00;96342.77;267071;1279;22776;-87
2023/01/18 08:13:30;;;;;;;18.90;8.30;;;;;;;6.97;100.00;96334.55;266399;1279;25252;-87
2023/01/18 08:19:35;;;;;;;18.80;8.30;;;;;;;6.88;100.00;96324.55;266513;1279;22580;-87
2023/01/18 08:25:38;;;;;;;17.40;8.00;;;;;;;6.96;100.00;96319.23;266707;1279;22746;-83
2023/01/18 08:31:41;;;;;;;18.20;8.10;;;;;;;7.07;100.00;96336.60;265895;1277;22587;-84
2023/01/18 08:37:44;;;;;;;18.20;8.90;;;;;;;7.11;100.00;96357.09;266257;1279;22581;-87
2023/01/18 08:43:51;;;;;;;16.70;8.10;;;;;;;7.37;100.00;96366.58;266098;1280;22728;-85
2023/01/18 08:49:54;;;;;;;12.60;6.10;;;;;;;7.33;100.00;96376.77;267992;1279;22713;-86
2023/01/18 08:56:03;;;;;;;13.20;6.20;;;;;;;7.22;100.00;96375.95;268045;1280;22582;-85
2023/01/18 09:02:09;;;;;;;14.40;6.30;;;;;;;7.35;100.00;96382.48;268088;1280;22677;-85
2023/01/18 09:08:13;;;;;;;10.40;5.60;;;;;;;7.43;100.00;96375.79;268019;1279;23875;-85
2023/01/18 09:14:26;;;;;;;12.00;5.90;;;;;;;7.18;100.00;96383.23;267885;1271;22580;-85
2023/01/18 09:20:34;;;;;;;13.20;5.90;;;;;;;7.30;100.00;96383.13;267674;1276;22586;-85
2023/01/18 09:26:41;;;;;;;11.50;5.60;;;;;;;7.21;100.00;96370.89;267814;1280;23837;-85
2023/01/18 09:32:57;;;;;;;12.20;6.20;;;;;;;7.29;100.00;96374.04;267691;1280;25358;-84
2023/01/18 09:39:04;;;;;;;11.80;5.80;;;;;;;7.50;100.00;96404.67;267573;1281;22563;-86
2023/01/18 09:45:21;;;;;;;11.10;5.50;;;;;;;7.66;100.00;96401.80;266282;1281;25426;-85
2023/01/18 09:51:31;;;;;;;11.10;5.50;;;;;;;7.82;100.00;96405.51;265495;1281;23906;-85
2023/01/18 09:57:54;;;;;;;12.40;6.70;;;;;;;7.93;100.00;96430.79;265925;1281;22541;-86
2023/01/18 10:04:01;;;;;;;16.30;8.10;;;;;;;8.15;100.00;96441.51;265677;1280;24294;-88
2023/01/18 10:10:05;;;;;;;20.20;9.20;;;;;;;8.22;100.00;96450.92;265735;1280;24242;-88
2023/01/18 10:16:13;;;;;;;25.50;12.90;;;;;;;8.32;100.00;96447.42;265563;1280;22593;-90
2023/01/18 10:22:21;;;;;;;27.30;13.30;;;;;;;8.27;100.00;96442.58;265840;1280;25280;-89
2023/01/18 10:28:33;;;;;;;16.60;9.60;;;;;;;8.50;100.00;96462.55;266100;1280;23197;-89
2023/01/18 10:34:41;;;;;;;12.30;7.30;;;;;;;8.50;100.00;96467.58;265992;1279;25349;-89
2023/01/18 10:40:59;;;;;;;9.60;6.00;;;;;;;8.46;100.00;96466.81;266693;1276;22638;-88
2023/01/18 10:47:02;;;;;;;8.50;5.50;;;;;;;8.47;100.00;96485.43;267903;1256;22549;-91
2023/01/18 10:53:30;;;;;;;10.20;5.90;;;;;;;8.63;100.00;96495.02;267820;1279;24176;-90
2023/01/18 10:59:41;;;;;;;11.10;6.50;;;;;;;8.67;100.00;96501.80;267526;1279;25268;-91
2023/01/18 11:05:44;;;;;;;15.30;7.40;;;;;;;8.75;100.00;96510.46;266439;1279;24229;-89
2023/01/18 11:18:11;;;;;;;15.70;9.00;;;;;;;8.57;100.00;96524.42;265748;1274;22546;-87
2023/01/18 11:24:29;;;;;;;18.20;9.70;;;;;;;8.51;100.00;96533.28;265907;1264;22683;-86
2023/01/18 11:30:32;;;;;;;15.20;8.80;;;;;;;8.54;100.00;96543.49;265851;1277;23370;-86
2023/01/18 11:36:39;;;;;;;18.70;9.80;;;;;;;8.42;100.00;96556.86;265661;1279;22633;-82
2023/01/18 11:42:41;;;;;;;19.70;10.20;;;;;;;8.52;100.00;96563.87;265832;1279;22554;-82
2023/01/18 11:48:51;;;;;;;19.20;10.60;;;;;;;8.46;100.00;96579.39;266178;1279;25341;-83
2023/01/18 11:55:03;;;;;;;22.00;11.40;;;;;;;8.25;100.00;96583.77;266116;1279;25508;-81
2023/01/18 12:01:29;;;;;;;20.10;11.20;;;;;;;8.44;100.00;96591.70;265894;1279;25305;-82
2023/01/18 12:07:37;;;;;;;16.20;9.50;;;;;;;8.48;100.00;96598.01;265983;1279;109105;-83
2023/01/18 12:13:59;;;;;;;16.10;9.40;;;;;;;8.63;100.00;96622.09;266156;1261;24389;-82
2023/01/18 12:20:33;;;;;;;17.10;9.00;;;;;;;8.84;100.00;96624.89;265921;1279;22536;-80
2023/01/18 12:26:53;;;;;;;13.70;8.10;;;;;;;8.87;100.00;96641.81;265753;1279;22596;-82
2023/01/18 12:33:11;;;;;;;13.30;7.60;;;;;;;8.87;100.00;96659.12;265923;1279;25382;-81
2023/01/18 12:39:47;;;;;;;12.90;7.70;;;;;;;9.08;100.00;96670.59;266059;1279;25431;-81
2023/01/18 12:46:14;;;;;;;12.20;7.30;;;;;;;8.96;100.00;96679.73;265509;1279;22668;-80
2023/01/18 12:52:22;;;;;;;13.20;8.10;;;;;;;9.02;100.00;96699.33;265761;1277;22575;-81
2023/01/18 12:58:25;;;;;;;14.70;8.80;;;;;;;8.97;100.00;96704.35;266641;1279;22785;-80
2023/01/18 13:04:34;;;;;;;14.60;8.70;;;;;;;9.14;100.00;96718.70;265767;1276;22542;-80
2023/01/18 13:10:40;;;;;;;13.30;8.00;;;;;;;8.76;100.00;96737.21;265791;1280;22565;-80
2023/01/18 13:16:51;;;;;;;15.00;8.40;;;;;;;8.68;100.00;96767.13;265820;1280;24455;-81
2023/01/18 13:23:13;;;;;;;17.30;9.00;;;;;;;8.99;100.00;96778.61;266506;1280;25427;-82
2023/01/18 13:29:24;;;;;;;15.40;8.50;;;;;;;8.71;100.00;96808.77;265921;1264;22536;-83
2023/01/18 13:35:34;;;;;;;15.90;8.90;;;;;;;8.68;100.00;96819.70;265765;1280;22655;-81
2023/01/18 13:41:37;;;;;;;18.50;9.50;;;;;;;8.54;100.00;96843.20;265457;1280;25333;-81
2023/01/18 13:48:03;;;;;;;15.70;8.50;;;;;;;8.41;100.00;96864.64;265643;1279;24240;-81
2023/01/18 13:54:08;;;;;;;11.50;7.20;;;;;;;8.11;100.00;96881.89;266058;1279;22632;-81
2023/01/18 14:00:24;;;;;;;10.50;6.20;;;;;;;8.05;100.00;96895.06;266166;1279;24685;-82
2023/01/18 14:06:31;;;;;;;9.70;6.00;;;;;;;8.48;100.00;96905.02;265868;1261;24396;-81
2023/01/18 14:12:52;;;;;;;9.40;4.90;;;;;;;8.54;100.00;96923.13;266220;1261;25426;-82
2023/01/18 14:19:14;;;;;;;7.80;4.50;;;;;;;8.55;100.00;96935.23;265728;1264;22555;-82
2023/01/18 14:25:17;;;;;;;6.50;4.00;;;;;;;8.65;100.00;96960.17;265750;1279;22554;-80
2023/01/18 14:31:25;;;;;;;7.90;3.70;;;;;;;8.57;100.00;96967.58;265699;1279;22677;-79
2023/01/18 14:37:33;;;;;;;7.00;4.00;;;;;;;8.53;100.00;96973.79;265619;1279;22664;-82
2023/01/18 14:43:43;;;;;;;7.40;4.40;;;;;;;8.60;100.00;96984.30;266136;1277;22550;-82
2023/01/18 14:49:46;;;;;;;8.10;4.50;;;;;;;8.53;100.00;97005.09;265812;1279;25233;-82
2023/01/18 14:56:15;;;;;;;8.50;5.00;;;;;;;8.53;100.00;97018.73;265920;1279;25417;-84
2023/01/18 15:02:25;;;;;;;8.60;4.90;;;;;;;8.66;100.00;97028.98;267261;1276;22582;-86
2023/01/18 15:08:32;;;;;;;10.00;5.20;;;;;;;8.61;100.00;97043.17;266246;1277;22547;-86
2023/01/18 15:14:37;;;;;;;;;;;;;;;8.56;100.00;97059.50;266363;1279;22539;-86
2023/01/18 15:20:51;;;;;;;8.90;4.70;;;;;;;8.50;100.00;97073.73;266161;1279;22577;-85
2023/01/18 15:26:56;;;;;;;7.80;4.40;;;;;;;8.06;100.00;97081.47;265976;1279;22708;-85
2023/01/18 15:33:00;;;;;;;7.70;3.90;;;;;;;7.96;100.00;97095.80;265967;1280;22545;-87
2023/01/18 15:39:09;;;;;;;8.70;4.50;;;;;;;7.72;100.00;97102.80;265952;1280;22536;-85
2023/01/18 15:45:20;;;;;;;9.00;4.70;;;;;;;7.49;100.00;97108.42;266068;1279;22570;-85
2023/01/18 15:51:51;;;;;;;11.30;5.40;;;;;;;7.51;100.00;97124.70;265589;1279;22567;-83
2023/01/18 15:57:59;;;;;;;10.40;5.40;;;;;;;7.28;100.00;97128.27;265590;1266;23946;-84
2023/01/18 16:04:12;;;;;;;12.50;6.40;;;;;;;7.28;100.00;97137.32;265603;1279;22596;-83
2023/01/18 16:10:29;;;;;;;11.80;6.90;;;;;;;7.11;100.00;97147.56;266122;1269;22983;-83
2023/01/18 16:16:40;;;;;;;15.70;8.00;;;;;;;6.90;100.00;97143.75;266002;1279;22552;-83
2023/01/18 16:22:50;;;;;;;13.50;8.30;;;;;;;6.90;100.00;97156.64;265913;1279;22535;-82
2023/01/18 16:29:12;;;;;;;14.50;7.40;;;;;;;6.97;100.00;97176.31;265939;1279;22561;-85
2023/01/18 16:35:18;;;;;;;14.10;7.70;;;;;;;7.09;100.00;97191.12;267234;1280;22651;-84
2023/01/18 16:41:30;;;;;;;11.80;6.90;;;;;;;7.24;100.00;97217.80;267327;1279;23884;-84
2023/01/18 16:47:33;;;;;;;11.50;6.60;;;;;;;7.36;100.00;97232.02;267277;1279;22772;-84
2023/01/18 16:53:42;;;;;;;12.90;7.30;;;;;;;7.35;100.00;97239.49;267278;1279;22552;-86
2023/01/18 16:59:45;;;;;;;14.00;7.80;;;;;;;7.22;100.00;97241.52;266701;1279;25401;-83
2023/01/18 17:05:49;;;;;;;13.70;7.70;;;;;;;7.46;100.00;97252.91;266291;1279;25311;-84
2023/01/18 17:11:54;;;;;;;14.00;8.50;;;;;;;7.56;100.00;97259.83;265674;1279;22767;-83
2023/01/18 17:17:58;;;;;;;21.60;11.20;;;;;;;7.60;100.00;97263.87;266087;1279;22578;-83
2023/01/18 17:24:01;;;;;;;16.60;9.80;;;;;;;7.47;100.00;97272.25;266133;1279;24270;-87
2023/01/18 17:30:26;;;;;;;14.20;8.60;;;;;;;7.50;100.00;97282.45;265865;1277;25431;-86
2023/01/18 17:36:29;;;;;;;13.90;7.40;;;;;;;7.71;100.00;97294.71;265819;1279;26145;-88
2023/01/18 17:42:32;;;;;;;13.00;7.20;;;;;;;7.67;100.00;97303.02;265822;1280;22560;-87
2023/01/18 17:48:35;;;;;;;10.70;6.20;;;;;;;7.63;100.00;97318.56;265845;1279;22547;-87
2023/01/18 17:54:38;;;;;;;11.50;5.50;;;;;;;7.34;100.00;97341.13;265868;1271;22551;-85
2023/01/18 18:00:44;;;;;;;9.50;5.10;;;;;;;7.09;100.00;97346.89;265867;1280;22529;-84
2023/01/18 18:06:51;;;;;;;11.00;5.80;;;;;;;6.86;100.00;97342.69;265741;1279;22500;-86
2023/01/18 18:12:56;;;;;;;10.90;6.00;;;;;;;6.81;100.00;97335.25;266175;1280;25426;-84
2023/01/18 18:19:00;;;;;;;11.50;6.50;;;;;;;6.72;100.00;97341.23;266116;1280;22686;-85
2023/01/18 18:25:05;;;;;;;9.60;5.30;;;;;;;6.67;100.00;97351.64;266097;1279;23920;-86
2023/01/18 18:31:14;;;;;;;9.50;5.00;;;;;;;6.56;100.00;97369.42;266105;1279;22535;-86
2023/01/18 18:37:18;;;;;;;8.10;3.80;;;;;;;6.45;100.00;97384.61;266464;1279;22568;-85
2023/01/18 18:43:23;;;;;;;7.50;3.80;;;;;;;6.42;100.00;97400.21;266306;1279;22571;-85
2023/01/18 18:49:26;;;;;;;6.80;3.80;;;;;;;6.45;100.00;97414.77;265905;1279;26651;-85
2023/01/18 18:55:32;;;;;;;7.40;3.10;;;;;;;6.43;100.00;97427.45;265699;1279;24765;-87
2023/01/18 19:01:36;;;;;;;6.30;3.00;;;;;;;6.47;100.00;97432.59;265691;1263;25317;-87
2023/01/18 19:07:41;;;;;;;6.70;3.10;;;;;;;6.28;100.00;97434.97;265889;1279;25465;-86
2023/01/18 19:13:57;;;;;;;7.10;3.40;;;;;;;6.05;100.00;97438.70;265669;1279;23880;-86
2023/01/18 19:20:00;;;;;;;6.70;3.10;;;;;;;5.93;100.00;97466.54;266241;1279;24745;-85
2023/01/18 19:26:04;;;;;;;7.90;3.40;;;;;;;5.56;100.00;97474.98;266039;1279;22575;-84
2023/01/18 19:32:07;;;;;;;5.20;3.00;;;;;;;5.56;100.00;97491.77;266279;1270;22781;-85
2023/01/18 19:38:11;;;;;;;6.60;3.40;;;;;;;5.31;100.00;97496.07;266285;1279;24214;-83
2023/01/18 19:44:15;;;;;;;6.90;3.70;;;;;;;5.32;100.00;97500.56;265798;1279;22589;-85
2023/01/18 19:50:19;;;;;;;6.40;3.40;;;;;;;5.38;100.00;97506.18;265754;1279;22548;-85
2023/01/18 19:56:27;;;;;;;6.80;3.50;;;;;;;5.20;100.00;97508.79;266226;1279;22570;-80
2023/01/18 20:02:32;;;;;;;8.40;3.30;;;;;;;5.08;100.00;97524.77;266809;1260;22548;-84
2023/01/18 20:08:37;;;;;;;5.20;2.70;;;;;;;5.05;100.00;97549.66;266879;1279;22562;-85
2023/01/18 20:14:44;;;;;;;6.90;3.50;;;;;;;4.95;100.00;97561.27;266488;1279;25183;-83
2023/01/18 20:20:47;;;;;;;5.90;3.00;;;;;;;4.83;100.00;97575.36;266932;1273;22549;-81
2023/01/18 20:27:03;;;;;;;6.10;3.10;;;;;;;4.69;100.00;97575.20;267870;1280;22551;-83
2023/01/18 20:33:18;;;;;;;7.00;3.50;;;;;;;4.78;100.00;97568.05;267213;1279;24048;-83
2023/01/18 20:39:23;;;;;;;4.50;2.90;;;;;;;4.64;100.00;97556.40;266388;1279;22574;-82
2023/01/18 20:45:26;;;;;;;5.20;2.90;;;;;;;4.62;100.00;97556.27;266168;1273;22673;-80
2023/01/18 20:51:30;;;;;;;6.70;3.00;;;;;;;4.69;100.00;97562.63;265950;1271;25654;-79
2023/01/18 20:57:33;;;;;;;6.90;3.00;;;;;;;4.61;100.00;97564.98;266522;1279;25332;-83
2023/01/18 21:04:01;;;;;;;6.30;3.00;;;;;;;4.70;100.00;97573.67;267661;1279;22599;-85
2023/01/18 21:10:21;;;;;;;6.90;3.10;;;;;;;4.62;100.00;97594.19;267226;1279;22490;-83
2023/01/18 21:16:34;;;;;;;5.40;2.90;;;;;;;4.62;100.00;97606.16;266819;1279;25319;-80
2023/01/18 21:22:37;;;;;;;5.60;3.00;;;;;;;4.61;100.00;97616.11;267110;1279;22656;-81
2023/01/18 21:28:40;;;;;;;8.10;4.20;;;;;;;4.47;100.00;97616.85;265957;1263;26687;-82
2023/01/18 21:34:43;;;;;;;7.90;4.80;;;;;;;4.52;100.00;97623.58;265788;1279;22998;-85
2023/01/18 21:45:53;;;;;;;6.60;3.50;;;;;;;4.60;100.00;97630.91;266246;1279;25236;-84
2023/01/18 21:47:30;;;;;;;8.00;3.80;;;;;;;4.56;100.00;97637.90;267322;1279;24748;-84
2023/01/18 21:54:13;;;;;;;11.30;4.50;;;;;;;4.57;100.00;97638.04;267466;1274;25347;-85
2023/01/18 22:00:20;;;;;;;10.90;5.50;;;;;;;4.59;100.00;97655.29;267571;1279;22597;-89
2023/01/18 22:06:27;;;;;;;10.70;5.20;;;;;;;4.66;100.00;97690.34;267197;1279;22569;-89
2023/01/18 22:12:34;;;;;;;11.60;5.40;;;;;;;4.75;100.00;97706.13;267559;1280;24221;-87
2023/01/18 22:18:40;;;;;;;15.50;6.80;;;;;;;4.72;100.00;97712.92;267420;1276;23328;-87
2023/01/18 22:24:43;;;;;;;14.50;7.20;;;;;;;4.87;100.00;97716.60;266772;1274;22562;-87
2023/01/18 22:30:52;;;;;;;14.70;6.90;;;;;;;4.87;100.00;97707.80;266108;1279;22666;-87
2023/01/18 22:37:12;;;;;;;15.10;7.50;;;;;;;4.83;100.00;97712.29;267528;1257;22632;-87
2023/01/18 22:43:22;;;;;;;13.30;6.70;;;;;;;4.89;100.00;97721.66;267183;1279;22585;-87
2023/01/18 22:49:25;;;;;;;13.90;6.20;;;;;;;4.83;100.00;97736.33;266931;1280;22598;-84
2023/01/18 22:55:28;;;;;;;11.50;5.70;;;;;;;4.82;100.00;97741.30;266622;1279;26501;-85
2023/01/18 23:01:45;;;;;;;13.00;5.90;;;;;;;4.64;100.00;97756.80;267056;1279;22560;-88
2023/01/18 23:08:10;;;;;;;11.90;6.20;;;;;;;5.02;100.00;97761.31;267022;1279;23375;-84
2023/01/18 23:20:51;;;;;;;12.60;6.00;;;;;;;5.20;100.00;97749.63;266758;1279;22749;-85
2023/01/18 23:27:06;;;;;;;10.30;5.50;;;;;;;5.18;100.00;97759.07;266898;1279;25454;-82
2023/01/18 23:33:14;;;;;;;12.10;6.30;;;;;;;5.15;100.00;97770.17;266820;1279;24246;-81
2023/01/18 23:58:21;;;;;;;14.10;6.40;;;;;;;5.28;100.00;97761.02;266074;1279;22597;-80
